sensor_id;sensor_type;location;lat;lon;timestamp;P1;durP1;ratioP1;P2;durP2;ratioP2
8550;SDS011;4313;42.000;21.380;2023-05-07T00:00:17;7.22;;;6.40;;
8550;SDS011;4313;42.000;21.380;2023-05-07T00:02:46;8.60;;;6.65;;
8550;SDS011;4313;42.000;21.380;2023-05-07T00:05:14;8.05;;;6.88;;
8550;SDS011;4313;42.000;21.380;2023-05-07T00:07:41;8.48;;;6.93;;
8550;SDS011;4313;42.000;21.380;2023-05-07T00:10:09;8.60;;;7.05;;
8550;SDS011;4313;42.000;21.380;2023-05-07T00:12:37;8.82;;;7.10;;
8550;SDS011;4313;42.000;21.380;2023-05-07T00:15:05;7.78;;;6.57;;
8550;SDS011;4313;42.000;21.380;2023-05-07T00:17:33;11.32;;;7.07;;
8550;SDS011;4313;42.000;21.380;2023-05-07T00:20:03;7.93;;;6.50;;
8550;SDS011;4313;42.000;21.380;2023-05-07T00:22:33;7.97;;;6.57;;
8550;SDS011;4313;42.000;21.380;2023-05-07T00:25:00;8.57;;;6.47;;
8550;SDS011;4313;42.000;21.380;2023-05-07T00:27:27;9.02;;;6.57;;
8550;SDS011;4313;42.000;21.380;2023-05-07T00:29:54;8.40;;;6.75;;
8550;SDS011;4313;42.000;21.380;2023-05-07T00:32:21;7.63;;;6.10;;
8550;SDS011;4313;42.000;21.380;2023-05-07T00:34:48;9.07;;;6.93;;
8550;SDS011;4313;42.000;21.380;2023-05-07T00:37:19;8.67;;;6.20;;
8550;SDS011;4313;42.000;21.380;2023-05-07T00:39:46;7.95;;;6.40;;
8550;SDS011;4313;42.000;21.380;2023-05-07T00:42:14;7.30;;;6.50;;
8550;SDS011;4313;42.000;21.380;2023-05-07T00:44:41;8.27;;;6.73;;
8550;SDS011;4313;42.000;21.380;2023-05-07T00:47:08;7.72;;;6.05;;
8550;SDS011;4313;42.000;21.380;2023-05-07T00:49:38;8.90;;;6.78;;
8550;SDS011;4313;42.000;21.380;2023-05-07T00:52:06;8.43;;;6.80;;
8550;SDS011;4313;42.000;21.380;2023-05-07T00:54:37;8.20;;;6.67;;
8550;SDS011;4313;42.000;21.380;2023-05-07T00:57:05;12.18;;;6.47;;
8550;SDS011;4313;42.000;21.380;2023-05-07T00:59:32;9.88;;;6.57;;
8550;SDS011;4313;42.000;21.380;2023-05-07T01:02:00;8.10;;;6.72;;
8550;SDS011;4313;42.000;21.380;2023-05-07T01:04:27;7.95;;;6.68;;
8550;SDS011;4313;42.000;21.380;2023-05-07T01:06:55;7.93;;;6.82;;
8550;SDS011;4313;42.000;21.380;2023-05-07T01:09:23;7.50;;;6.53;;
8550;SDS011;4313;42.000;21.380;2023-05-07T01:11:52;9.07;;;6.60;;
8550;SDS011;4313;42.000;21.380;2023-05-07T01:14:20;7.28;;;6.57;;
8550;SDS011;4313;42.000;21.380;2023-05-07T01:16:49;7.05;;;6.35;;
8550;SDS011;4313;42.000;21.380;2023-05-07T01:19:18;8.37;;;6.20;;
8550;SDS011;4313;42.000;21.380;2023-05-07T01:21:46;8.03;;;6.33;;
8550;SDS011;4313;42.000;21.380;2023-05-07T01:24:17;8.30;;;7.00;;
8550;SDS011;4313;42.000;21.380;2023-05-07T01:26:45;7.27;;;6.33;;
8550;SDS011;4313;42.000;21.380;2023-05-07T01:29:15;8.43;;;6.33;;
8550;SDS011;4313;42.000;21.380;2023-05-07T01:31:42;7.00;;;6.27;;
8550;SDS011;4313;42.000;21.380;2023-05-07T01:34:10;10.13;;;6.63;;
8550;SDS011;4313;42.000;21.380;2023-05-07T01:36:38;7.40;;;6.53;;
8550;SDS011;4313;42.000;21.380;2023-05-07T01:39:05;6.78;;;5.97;;
8550;SDS011;4313;42.000;21.380;2023-05-07T01:41:34;6.93;;;5.82;;
8550;SDS011;4313;42.000;21.380;2023-05-07T01:44:02;6.65;;;6.03;;
8550;SDS011;4313;42.000;21.380;2023-05-07T01:46:30;7.05;;;6.35;;
8550;SDS011;4313;42.000;21.380;2023-05-07T01:48:58;7.23;;;6.30;;
8550;SDS011;4313;42.000;21.380;2023-05-07T01:51:25;8.10;;;6.20;;
8550;SDS011;4313;42.000;21.380;2023-05-07T01:53:53;7.50;;;6.77;;
8550;SDS011;4313;42.000;21.380;2023-05-07T01:56:21;6.73;;;6.03;;
8550;SDS011;4313;42.000;21.380;2023-05-07T01:58:51;7.78;;;5.95;;
8550;SDS011;4313;42.000;21.380;2023-05-07T02:01:18;8.57;;;6.40;;
8550;SDS011;4313;42.000;21.380;2023-05-07T02:03:46;7.25;;;6.47;;
8550;SDS011;4313;42.000;21.380;2023-05-07T02:06:21;8.38;;;6.63;;
8550;SDS011;4313;42.000;21.380;2023-05-07T02:08:49;6.68;;;6.07;;
8550;SDS011;4313;42.000;21.380;2023-05-07T02:11:17;9.10;;;6.17;;
8550;SDS011;4313;42.000;21.380;2023-05-07T02:13:44;8.27;;;6.60;;
8550;SDS011;4313;42.000;21.380;2023-05-07T02:16:12;7.80;;;6.87;;
8550;SDS011;4313;42.000;21.380;2023-05-07T02:18:40;6.95;;;6.18;;
8550;SDS011;4313;42.000;21.380;2023-05-07T02:21:07;7.60;;;5.97;;
8550;SDS011;4313;42.000;21.380;2023-05-07T02:23:35;7.18;;;6.43;;
8550;SDS011;4313;42.000;21.380;2023-05-07T02:26:03;7.30;;;6.60;;
8550;SDS011;4313;42.000;21.380;2023-05-07T02:28:31;7.00;;;6.30;;
8550;SDS011;4313;42.000;21.380;2023-05-07T02:31:02;6.90;;;6.20;;
8550;SDS011;4313;42.000;21.380;2023-05-07T02:33:31;7.07;;;6.37;;
8550;SDS011;4313;42.000;21.380;2023-05-07T02:38:39;7.30;;;6.60;;
8550;SDS011;4313;42.000;21.380;2023-05-07T02:41:06;9.87;;;6.63;;
8550;SDS011;4313;42.000;21.380;2023-05-07T02:43:33;8.57;;;6.57;;
8550;SDS011;4313;42.000;21.380;2023-05-07T02:46:01;6.77;;;6.07;;
8550;SDS011;4313;42.000;21.380;2023-05-07T02:48:29;8.63;;;6.60;;
8550;SDS011;4313;42.000;21.380;2023-05-07T02:50:57;6.77;;;6.07;;
8550;SDS011;4313;42.000;21.380;2023-05-07T02:53:25;7.67;;;6.00;;
8550;SDS011;4313;42.000;21.380;2023-05-07T02:55:52;6.90;;;6.20;;
8550;SDS011;4313;42.000;21.380;2023-05-07T02:58:20;7.70;;;6.07;;
8550;SDS011;4313;42.000;21.380;2023-05-07T03:00:47;7.27;;;6.57;;
8550;SDS011;4313;42.000;21.380;2023-05-07T03:03:25;8.47;;;6.40;;
8550;SDS011;4313;42.000;21.380;2023-05-07T03:05:53;9.40;;;6.57;;
8550;SDS011;4313;42.000;21.380;2023-05-07T03:08:22;7.00;;;6.30;;
8550;SDS011;4313;42.000;21.380;2023-05-07T03:10:49;7.23;;;6.53;;
8550;SDS011;4313;42.000;21.380;2023-05-07T03:13:17;8.97;;;6.17;;
8550;SDS011;4313;42.000;21.380;2023-05-07T03:15:44;7.03;;;6.30;;
8550;SDS011;4313;42.000;21.380;2023-05-07T03:18:11;6.93;;;6.23;;
8550;SDS011;4313;42.000;21.380;2023-05-07T03:20:39;7.90;;;5.97;;
8550;SDS011;4313;42.000;21.380;2023-05-07T03:23:07;7.70;;;6.17;;
8550;SDS011;4313;42.000;21.380;2023-05-07T03:25:35;7.17;;;6.20;;
8550;SDS011;4313;42.000;21.380;2023-05-07T03:28:03;8.10;;;6.57;;
8550;SDS011;4313;42.000;21.380;2023-05-07T03:30:40;7.23;;;6.20;;
8550;SDS011;4313;42.000;21.380;2023-05-07T03:33:07;7.57;;;6.83;;
8550;SDS011;4313;42.000;21.380;2023-05-07T03:35:35;7.33;;;6.60;;
8550;SDS011;4313;42.000;21.380;2023-05-07T03:38:02;7.37;;;6.67;;
8550;SDS011;4313;42.000;21.380;2023-05-07T03:40:33;8.77;;;6.53;;
8550;SDS011;4313;42.000;21.380;2023-05-07T03:43:02;8.60;;;6.70;;
8550;SDS011;4313;42.000;21.380;2023-05-07T03:45:31;7.57;;;6.47;;
8550;SDS011;4313;42.000;21.380;2023-05-07T03:48:22;7.63;;;6.50;;
8550;SDS011;4313;42.000;21.380;2023-05-07T03:50:51;7.57;;;6.73;;
8550;SDS011;4313;42.000;21.380;2023-05-07T03:53:19;8.30;;;7.10;;
8550;SDS011;4313;42.000;21.380;2023-05-07T03:55:46;8.43;;;6.87;;
8550;SDS011;4313;42.000;21.380;2023-05-07T03:58:16;8.40;;;6.40;;
8550;SDS011;4313;42.000;21.380;2023-05-07T04:00:43;7.43;;;6.28;;
8550;SDS011;4313;42.000;21.380;2023-05-07T04:03:23;7.87;;;6.20;;
8550;SDS011;4313;42.000;21.380;2023-05-07T04:05:51;7.57;;;6.53;;
8550;SDS011;4313;42.000;21.380;2023-05-07T04:08:18;7.63;;;6.67;;
8550;SDS011;4313;42.000;21.380;2023-05-07T04:10:48;8.27;;;6.80;;
8550;SDS011;4313;42.000;21.380;2023-05-07T04:13:16;8.23;;;7.30;;
8550;SDS011;4313;42.000;21.380;2023-05-07T04:15:44;8.47;;;7.27;;
8550;SDS011;4313;42.000;21.380;2023-05-07T04:18:14;10.10;;;7.30;;
8550;SDS011;4313;42.000;21.380;2023-05-07T04:20:43;7.32;;;6.60;;
8550;SDS011;4313;42.000;21.380;2023-05-07T04:23:13;6.73;;;6.03;;
8550;SDS011;4313;42.000;21.380;2023-05-07T04:25:40;8.82;;;6.78;;
8550;SDS011;4313;42.000;21.380;2023-05-07T04:28:20;7.15;;;6.38;;
8550;SDS011;4313;42.000;21.380;2023-05-07T04:30:49;7.22;;;6.22;;
8550;SDS011;4313;42.000;21.380;2023-05-07T04:33:21;7.83;;;6.23;;
8550;SDS011;4313;42.000;21.380;2023-05-07T04:35:49;7.43;;;6.70;;
8550;SDS011;4313;42.000;21.380;2023-05-07T04:38:17;8.38;;;6.80;;
8550;SDS011;4313;42.000;21.380;2023-05-07T04:40:46;6.85;;;6.10;;
8550;SDS011;4313;42.000;21.380;2023-05-07T04:43:18;8.07;;;7.10;;
8550;SDS011;4313;42.000;21.380;2023-05-07T04:45:51;7.82;;;7.03;;
8550;SDS011;4313;42.000;21.380;2023-05-07T04:48:20;8.65;;;7.05;;
8550;SDS011;4313;42.000;21.380;2023-05-07T04:50:49;7.85;;;6.70;;
8550;SDS011;4313;42.000;21.380;2023-05-07T04:53:17;7.60;;;6.68;;
8550;SDS011;4313;42.000;21.380;2023-05-07T04:55:45;6.75;;;5.95;;
8550;SDS011;4313;42.000;21.380;2023-05-07T04:58:12;7.15;;;5.88;;
8550;SDS011;4313;42.000;21.380;2023-05-07T05:00:40;7.38;;;6.60;;
8550;SDS011;4313;42.000;21.380;2023-05-07T05:03:10;7.07;;;6.00;;
8550;SDS011;4313;42.000;21.380;2023-05-07T05:05:38;6.95;;;6.25;;
8550;SDS011;4313;42.000;21.380;2023-05-07T05:08:06;7.03;;;6.32;;
8550;SDS011;4313;42.000;21.380;2023-05-07T05:10:36;8.38;;;6.18;;
8550;SDS011;4313;42.000;21.380;2023-05-07T05:13:05;7.10;;;6.30;;
8550;SDS011;4313;42.000;21.380;2023-05-07T05:15:33;8.25;;;6.45;;
8550;SDS011;4313;42.000;21.380;2023-05-07T05:18:02;8.27;;;6.00;;
8550;SDS011;4313;42.000;21.380;2023-05-07T05:20:31;6.90;;;6.20;;
8550;SDS011;4313;42.000;21.380;2023-05-07T05:22:58;6.72;;;5.55;;
8550;SDS011;4313;42.000;21.380;2023-05-07T05:25:25;8.48;;;6.47;;
8550;SDS011;4313;42.000;21.380;2023-05-07T05:27:55;10.30;;;7.22;;
8550;SDS011;4313;42.000;21.380;2023-05-07T05:30:22;9.43;;;6.82;;
8550;SDS011;4313;42.000;21.380;2023-05-07T05:32:49;8.45;;;7.05;;
8550;SDS011;4313;42.000;21.380;2023-05-07T05:35:16;8.88;;;6.63;;
8550;SDS011;4313;42.000;21.380;2023-05-07T05:37:45;8.23;;;6.10;;
8550;SDS011;4313;42.000;21.380;2023-05-07T05:40:13;6.28;;;5.60;;
8550;SDS011;4313;42.000;21.380;2023-05-07T05:42:40;6.63;;;5.95;;
8550;SDS011;4313;42.000;21.380;2023-05-07T05:45:09;9.43;;;5.97;;
8550;SDS011;4313;42.000;21.380;2023-05-07T05:47:37;6.63;;;5.97;;
8550;SDS011;4313;42.000;21.380;2023-05-07T05:50:06;6.53;;;5.80;;
8550;SDS011;4313;42.000;21.380;2023-05-07T05:52:34;7.40;;;6.38;;
8550;SDS011;4313;42.000;21.380;2023-05-07T05:55:03;8.18;;;6.38;;
8550;SDS011;4313;42.000;21.380;2023-05-07T05:57:31;7.47;;;6.18;;
8550;SDS011;4313;42.000;21.380;2023-05-07T05:59:59;8.07;;;5.93;;
8550;SDS011;4313;42.000;21.380;2023-05-07T06:02:29;8.90;;;5.75;;
8550;SDS011;4313;42.000;21.380;2023-05-07T06:04:56;6.53;;;5.88;;
8550;SDS011;4313;42.000;21.380;2023-05-07T06:07:23;6.10;;;5.50;;
8550;SDS011;4313;42.000;21.380;2023-05-07T06:09:50;6.40;;;5.15;;
8550;SDS011;4313;42.000;21.380;2023-05-07T06:12:19;6.68;;;5.53;;
8550;SDS011;4313;42.000;21.380;2023-05-07T06:14:46;5.95;;;5.32;;
8550;SDS011;4313;42.000;21.380;2023-05-07T06:17:15;5.97;;;5.07;;
8550;SDS011;4313;42.000;21.380;2023-05-07T06:19:42;10.50;;;5.32;;
8550;SDS011;4313;42.000;21.380;2023-05-07T06:22:10;8.68;;;5.35;;
8550;SDS011;4313;42.000;21.380;2023-05-07T06:24:37;7.57;;;5.70;;
8550;SDS011;4313;42.000;21.380;2023-05-07T06:27:05;7.28;;;5.50;;
8550;SDS011;4313;42.000;21.380;2023-05-07T06:29:34;9.15;;;5.95;;
8550;SDS011;4313;42.000;21.380;2023-05-07T06:32:07;6.35;;;5.70;;
8550;SDS011;4313;42.000;21.380;2023-05-07T06:34:35;7.55;;;5.70;;
8550;SDS011;4313;42.000;21.380;2023-05-07T06:37:03;7.70;;;5.40;;
8550;SDS011;4313;42.000;21.380;2023-05-07T06:39:44;10.02;;;5.97;;
8550;SDS011;4313;42.000;21.380;2023-05-07T06:42:12;7.30;;;5.60;;
8550;SDS011;4313;42.000;21.380;2023-05-07T06:44:43;6.97;;;6.10;;
8550;SDS011;4313;42.000;21.380;2023-05-07T06:47:12;7.30;;;6.22;;
8550;SDS011;4313;42.000;21.380;2023-05-07T06:49:39;6.95;;;5.85;;
8550;SDS011;4313;42.000;21.380;2023-05-07T06:52:07;6.55;;;5.88;;
8550;SDS011;4313;42.000;21.380;2023-05-07T06:54:34;8.15;;;6.25;;
8550;SDS011;4313;42.000;21.380;2023-05-07T06:57:01;7.75;;;5.65;;
8550;SDS011;4313;42.000;21.380;2023-05-07T06:59:29;7.95;;;6.03;;
8550;SDS011;4313;42.000;21.380;2023-05-07T07:01:58;7.65;;;6.22;;
8550;SDS011;4313;42.000;21.380;2023-05-07T07:04:25;7.75;;;6.35;;
8550;SDS011;4313;42.000;21.380;2023-05-07T07:07:00;6.40;;;5.65;;
8550;SDS011;4313;42.000;21.380;2023-05-07T07:09:28;8.90;;;5.65;;
8550;SDS011;4313;42.000;21.380;2023-05-07T07:11:56;7.68;;;6.70;;
8550;SDS011;4313;42.000;21.380;2023-05-07T07:14:23;8.73;;;7.00;;
8550;SDS011;4313;42.000;21.380;2023-05-07T07:16:52;13.15;;;11.25;;
8550;SDS011;4313;42.000;21.380;2023-05-07T07:19:22;12.27;;;11.00;;
8550;SDS011;4313;42.000;21.380;2023-05-07T07:21:52;11.05;;;9.65;;
8550;SDS011;4313;42.000;21.380;2023-05-07T07:24:20;10.25;;;9.18;;
8550;SDS011;4313;42.000;21.380;2023-05-07T07:26:50;10.52;;;9.02;;
8550;SDS011;4313;42.000;21.380;2023-05-07T07:29:18;9.43;;;8.38;;
8550;SDS011;4313;42.000;21.380;2023-05-07T07:31:47;10.65;;;9.13;;
8550;SDS011;4313;42.000;21.380;2023-05-07T07:34:15;10.50;;;9.02;;
8550;SDS011;4313;42.000;21.380;2023-05-07T07:36:44;9.60;;;8.60;;
8550;SDS011;4313;42.000;21.380;2023-05-07T07:39:12;12.48;;;9.10;;
8550;SDS011;4313;42.000;21.380;2023-05-07T07:41:40;12.00;;;8.95;;
8550;SDS011;4313;42.000;21.380;2023-05-07T07:44:07;11.32;;;9.25;;
8550;SDS011;4313;42.000;21.380;2023-05-07T07:46:38;9.65;;;8.63;;
8550;SDS011;4313;42.000;21.380;2023-05-07T07:49:06;10.60;;;9.07;;
8550;SDS011;4313;42.000;21.380;2023-05-07T07:51:34;12.98;;;8.57;;
8550;SDS011;4313;42.000;21.380;2023-05-07T07:54:03;10.55;;;8.88;;
8550;SDS011;4313;42.000;21.380;2023-05-07T07:56:31;9.30;;;8.30;;
8550;SDS011;4313;42.000;21.380;2023-05-07T07:59:00;18.38;;;15.95;;
8550;SDS011;4313;42.000;21.380;2023-05-07T08:01:29;9.15;;;8.23;;
8550;SDS011;4313;42.000;21.380;2023-05-07T08:03:57;9.95;;;8.85;;
8550;SDS011;4313;42.000;21.380;2023-05-07T08:06:25;9.38;;;8.27;;
8550;SDS011;4313;42.000;21.380;2023-05-07T08:08:52;9.52;;;7.60;;
8550;SDS011;4313;42.000;21.380;2023-05-07T08:11:23;10.48;;;7.07;;
8550;SDS011;4313;42.000;21.380;2023-05-07T08:13:53;8.90;;;6.13;;
8550;SDS011;4313;42.000;21.380;2023-05-07T08:16:20;6.18;;;5.45;;
8550;SDS011;4313;42.000;21.380;2023-05-07T08:18:48;5.60;;;5.10;;
8550;SDS011;4313;42.000;21.380;2023-05-07T08:21:15;5.60;;;4.93;;
8550;SDS011;4313;42.000;21.380;2023-05-07T08:23:42;7.65;;;4.97;;
8550;SDS011;4313;42.000;21.380;2023-05-07T08:26:10;7.38;;;6.57;;
8550;SDS011;4313;42.000;21.380;2023-05-07T08:28:38;6.30;;;5.70;;
8550;SDS011;4313;42.000;21.380;2023-05-07T08:31:06;6.55;;;5.20;;
8550;SDS011;4313;42.000;21.380;2023-05-07T08:33:37;5.82;;;5.20;;
8550;SDS011;4313;42.000;21.380;2023-05-07T08:36:04;7.22;;;5.05;;
8550;SDS011;4313;42.000;21.380;2023-05-07T08:38:32;7.63;;;5.30;;
8550;SDS011;4313;42.000;21.380;2023-05-07T08:41:00;6.75;;;5.20;;
8550;SDS011;4313;42.000;21.380;2023-05-07T08:43:28;6.35;;;4.90;;
8550;SDS011;4313;42.000;21.380;2023-05-07T08:46:00;7.53;;;5.00;;
8550;SDS011;4313;42.000;21.380;2023-05-07T08:48:31;6.47;;;4.93;;
8550;SDS011;4313;42.000;21.380;2023-05-07T08:51:11;9.30;;;6.13;;
8550;SDS011;4313;42.000;21.380;2023-05-07T08:53:39;7.22;;;5.15;;
8550;SDS011;4313;42.000;21.380;2023-05-07T08:56:10;7.15;;;5.35;;
8550;SDS011;4313;42.000;21.380;2023-05-07T08:58:38;7.22;;;5.70;;
8550;SDS011;4313;42.000;21.380;2023-05-07T09:01:08;6.63;;;5.22;;
8550;SDS011;4313;42.000;21.380;2023-05-07T09:03:37;10.18;;;5.80;;
8550;SDS011;4313;42.000;21.380;2023-05-07T09:06:05;6.63;;;5.28;;
8550;SDS011;4313;42.000;21.380;2023-05-07T09:08:33;6.32;;;5.32;;
8550;SDS011;4313;42.000;21.380;2023-05-07T09:11:02;5.53;;;4.95;;
8550;SDS011;4313;42.000;21.380;2023-05-07T09:13:30;7.18;;;5.93;;
8550;SDS011;4313;42.000;21.380;2023-05-07T09:15:59;6.75;;;5.45;;
8550;SDS011;4313;42.000;21.380;2023-05-07T09:18:41;8.60;;;5.05;;
8550;SDS011;4313;42.000;21.380;2023-05-07T09:21:11;6.63;;;5.32;;
8550;SDS011;4313;42.000;21.380;2023-05-07T09:23:38;8.27;;;5.75;;
8550;SDS011;4313;42.000;21.380;2023-05-07T09:26:06;7.05;;;4.90;;
8550;SDS011;4313;42.000;21.380;2023-05-07T09:28:38;7.88;;;5.15;;
8550;SDS011;4313;42.000;21.380;2023-05-07T09:31:08;6.80;;;5.03;;
8550;SDS011;4313;42.000;21.380;2023-05-07T09:33:38;7.03;;;5.57;;
8550;SDS011;4313;42.000;21.380;2023-05-07T09:36:07;6.03;;;4.63;;
8550;SDS011;4313;42.000;21.380;2023-05-07T09:38:37;5.70;;;4.85;;
8550;SDS011;4313;42.000;21.380;2023-05-07T09:41:06;8.35;;;5.22;;
8550;SDS011;4313;42.000;21.380;2023-05-07T09:43:40;7.10;;;5.20;;
8550;SDS011;4313;42.000;21.380;2023-05-07T09:46:13;6.30;;;5.03;;
8550;SDS011;4313;42.000;21.380;2023-05-07T09:48:46;5.82;;;4.97;;
8550;SDS011;4313;42.000;21.380;2023-05-07T09:51:18;6.10;;;5.00;;
8550;SDS011;4313;42.000;21.380;2023-05-07T09:53:48;5.68;;;5.13;;
8550;SDS011;4313;42.000;21.380;2023-05-07T09:56:17;6.38;;;4.30;;
8550;SDS011;4313;42.000;21.380;2023-05-07T09:58:45;6.72;;;4.65;;
8550;SDS011;4313;42.000;21.380;2023-05-07T10:01:15;6.20;;;4.47;;
8550;SDS011;4313;42.000;21.380;2023-05-07T10:03:44;5.22;;;4.60;;
8550;SDS011;4313;42.000;21.380;2023-05-07T10:06:13;5.85;;;4.55;;
8550;SDS011;4313;42.000;21.380;2023-05-07T10:08:42;6.07;;;4.32;;
8550;SDS011;4313;42.000;21.380;2023-05-07T10:11:10;7.82;;;4.40;;
8550;SDS011;4313;42.000;21.380;2023-05-07T10:13:38;4.95;;;4.18;;
8550;SDS011;4313;42.000;21.380;2023-05-07T10:16:07;7.82;;;4.15;;
8550;SDS011;4313;42.000;21.380;2023-05-07T10:18:42;5.53;;;4.03;;
8550;SDS011;4313;42.000;21.380;2023-05-07T10:21:16;5.72;;;4.35;;
8550;SDS011;4313;42.000;21.380;2023-05-07T10:23:44;5.30;;;4.10;;
8550;SDS011;4313;42.000;21.380;2023-05-07T10:26:12;6.95;;;4.15;;
8550;SDS011;4313;42.000;21.380;2023-05-07T10:28:41;4.65;;;4.18;;
8550;SDS011;4313;42.000;21.380;2023-05-07T10:31:15;6.90;;;4.50;;
8550;SDS011;4313;42.000;21.380;2023-05-07T10:33:51;6.68;;;4.15;;
8550;SDS011;4313;42.000;21.380;2023-05-07T10:36:21;7.57;;;4.72;;
8550;SDS011;4313;42.000;21.380;2023-05-07T10:38:50;7.18;;;4.28;;
8550;SDS011;4313;42.000;21.380;2023-05-07T10:41:18;7.38;;;4.10;;
8550;SDS011;4313;42.000;21.380;2023-05-07T10:43:46;5.50;;;4.05;;
8550;SDS011;4313;42.000;21.380;2023-05-07T10:46:22;6.05;;;4.30;;
8550;SDS011;4313;42.000;21.380;2023-05-07T10:49:10;6.30;;;4.10;;
8550;SDS011;4313;42.000;21.380;2023-05-07T10:52:11;3.85;;;3.42;;
8550;SDS011;4313;42.000;21.380;2023-05-07T10:54:44;5.05;;;4.13;;
8550;SDS011;4313;42.000;21.380;2023-05-07T11:03:17;5.15;;;4.13;;
8550;SDS011;4313;42.000;21.380;2023-05-07T11:09:10;4.22;;;3.70;;
8550;SDS011;4313;42.000;21.380;2023-05-07T11:11:46;5.50;;;3.60;;
8550;SDS011;4313;42.000;21.380;2023-05-07T11:14:44;7.97;;;4.55;;
8550;SDS011;4313;42.000;21.380;2023-05-07T11:17:24;4.78;;;3.67;;
8550;SDS011;4313;42.000;21.380;2023-05-07T11:20:00;8.05;;;4.68;;
8550;SDS011;4313;42.000;21.380;2023-05-07T11:22:44;4.32;;;3.80;;
8550;SDS011;4313;42.000;21.380;2023-05-07T11:25:19;5.57;;;4.20;;
8550;SDS011;4313;42.000;21.380;2023-05-07T11:27:52;6.95;;;4.35;;
8550;SDS011;4313;42.000;21.380;2023-05-07T11:30:20;6.75;;;3.85;;
8550;SDS011;4313;42.000;21.380;2023-05-07T11:32:47;4.15;;;3.63;;
8550;SDS011;4313;42.000;21.380;2023-05-07T11:35:16;4.70;;;3.38;;
8550;SDS011;4313;42.000;21.380;2023-05-07T11:37:47;4.88;;;4.07;;
8550;SDS011;4313;42.000;21.380;2023-05-07T11:40:15;4.60;;;3.65;;
8550;SDS011;4313;42.000;21.380;2023-05-07T11:42:43;6.63;;;4.20;;
8550;SDS011;4313;42.000;21.380;2023-05-07T11:45:10;5.97;;;4.30;;
8550;SDS011;4313;42.000;21.380;2023-05-07T11:47:37;4.20;;;3.50;;
8550;SDS011;4313;42.000;21.380;2023-05-07T11:50:09;3.78;;;3.35;;
8550;SDS011;4313;42.000;21.380;2023-05-07T11:52:36;5.72;;;3.28;;
8550;SDS011;4313;42.000;21.380;2023-05-07T11:55:08;4.13;;;3.60;;
8550;SDS011;4313;42.000;21.380;2023-05-07T11:57:35;4.05;;;3.30;;
8550;SDS011;4313;42.000;21.380;2023-05-07T12:00:03;5.97;;;3.78;;
8550;SDS011;4313;42.000;21.380;2023-05-07T12:02:40;5.05;;;3.90;;
8550;SDS011;4313;42.000;21.380;2023-05-07T12:05:08;6.85;;;4.32;;
8550;SDS011;4313;42.000;21.380;2023-05-07T12:07:35;4.10;;;3.70;;
8550;SDS011;4313;42.000;21.380;2023-05-07T12:10:04;4.78;;;3.78;;
8550;SDS011;4313;42.000;21.380;2023-05-07T12:12:39;4.60;;;3.60;;
8550;SDS011;4313;42.000;21.380;2023-05-07T12:15:07;4.22;;;3.50;;
8550;SDS011;4313;42.000;21.380;2023-05-07T12:17:35;3.70;;;3.40;;
8550;SDS011;4313;42.000;21.380;2023-05-07T12:20:03;5.68;;;3.88;;
8550;SDS011;4313;42.000;21.380;2023-05-07T12:22:32;8.43;;;4.57;;
8550;SDS011;4313;42.000;21.380;2023-05-07T12:24:59;9.38;;;5.60;;
8550;SDS011;4313;42.000;21.380;2023-05-07T12:27:27;19.30;;;13.48;;
8550;SDS011;4313;42.000;21.380;2023-05-07T12:29:57;13.27;;;8.13;;
8550;SDS011;4313;42.000;21.380;2023-05-07T12:32:24;11.45;;;8.55;;
8550;SDS011;4313;42.000;21.380;2023-05-07T12:34:51;8.80;;;5.60;;
8550;SDS011;4313;42.000;21.380;2023-05-07T12:37:23;5.50;;;4.10;;
8550;SDS011;4313;42.000;21.380;2023-05-07T12:40:03;4.82;;;3.38;;
8550;SDS011;4313;42.000;21.380;2023-05-07T12:42:32;5.10;;;3.70;;
8550;SDS011;4313;42.000;21.380;2023-05-07T12:45:08;4.53;;;3.80;;
8550;SDS011;4313;42.000;21.380;2023-05-07T12:47:36;7.22;;;3.60;;
8550;SDS011;4313;42.000;21.380;2023-05-07T12:50:04;3.90;;;3.60;;
8550;SDS011;4313;42.000;21.380;2023-05-07T12:52:33;3.90;;;3.17;;
8550;SDS011;4313;42.000;21.380;2023-05-07T12:55:04;5.65;;;3.38;;
8550;SDS011;4313;42.000;21.380;2023-05-07T12:57:37;5.78;;;4.10;;
8550;SDS011;4313;42.000;21.380;2023-05-07T13:00:05;3.80;;;3.50;;
8550;SDS011;4313;42.000;21.380;2023-05-07T13:02:37;4.13;;;3.03;;
8550;SDS011;4313;42.000;21.380;2023-05-07T13:05:04;5.55;;;3.42;;
8550;SDS011;4313;42.000;21.380;2023-05-07T13:07:32;4.00;;;3.50;;
8550;SDS011;4313;42.000;21.380;2023-05-07T13:09:59;3.78;;;3.20;;
8550;SDS011;4313;42.000;21.380;2023-05-07T13:12:26;5.00;;;3.50;;
8550;SDS011;4313;42.000;21.380;2023-05-07T13:14:53;6.18;;;3.55;;
8550;SDS011;4313;42.000;21.380;2023-05-07T13:17:20;4.07;;;3.67;;
8550;SDS011;4313;42.000;21.380;2023-05-07T13:19:49;4.53;;;3.35;;
8550;SDS011;4313;42.000;21.380;2023-05-07T13:22:16;5.57;;;3.72;;
8550;SDS011;4313;42.000;21.380;2023-05-07T13:24:43;6.72;;;5.75;;
8550;SDS011;4313;42.000;21.380;2023-05-07T13:27:10;5.25;;;4.05;;
8550;SDS011;4313;42.000;21.380;2023-05-07T13:29:37;6.78;;;4.38;;
8550;SDS011;4313;42.000;21.380;2023-05-07T13:32:04;4.30;;;3.60;;
8550;SDS011;4313;42.000;21.380;2023-05-07T13:34:31;4.25;;;3.47;;
8550;SDS011;4313;42.000;21.380;2023-05-07T13:37:00;3.67;;;3.28;;
8550;SDS011;4313;42.000;21.380;2023-05-07T13:39:27;6.97;;;5.38;;
8550;SDS011;4313;42.000;21.380;2023-05-07T13:41:54;7.68;;;3.67;;
8550;SDS011;4313;42.000;21.380;2023-05-07T13:44:22;5.13;;;4.00;;
8550;SDS011;4313;42.000;21.380;2023-05-07T13:46:49;6.80;;;4.30;;
8550;SDS011;4313;42.000;21.380;2023-05-07T13:49:16;5.07;;;3.63;;
8550;SDS011;4313;42.000;21.380;2023-05-07T13:51:43;3.90;;;3.50;;
8550;SDS011;4313;42.000;21.380;2023-05-07T13:54:12;4.45;;;4.00;;
8550;SDS011;4313;42.000;21.380;2023-05-07T13:56:39;3.83;;;3.53;;
8550;SDS011;4313;42.000;21.380;2023-05-07T13:59:06;4.93;;;3.83;;
8550;SDS011;4313;42.000;21.380;2023-05-07T14:01:33;6.93;;;5.82;;
8550;SDS011;4313;42.000;21.380;2023-05-07T14:04:00;4.25;;;3.85;;
8550;SDS011;4313;42.000;21.380;2023-05-07T14:06:27;5.10;;;4.60;;
8550;SDS011;4313;42.000;21.380;2023-05-07T14:08:55;5.30;;;4.15;;
8550;SDS011;4313;42.000;21.380;2023-05-07T14:11:24;5.70;;;3.65;;
8550;SDS011;4313;42.000;21.380;2023-05-07T14:13:51;8.70;;;4.85;;
8550;SDS011;4313;42.000;21.380;2023-05-07T14:16:18;8.45;;;5.95;;
8550;SDS011;4313;42.000;21.380;2023-05-07T14:18:46;11.98;;;7.78;;
8550;SDS011;4313;42.000;21.380;2023-05-07T14:21:13;5.80;;;3.88;;
8550;SDS011;4313;42.000;21.380;2023-05-07T14:23:40;6.93;;;3.85;;
8550;SDS011;4313;42.000;21.380;2023-05-07T14:26:07;5.82;;;3.88;;
8550;SDS011;4313;42.000;21.380;2023-05-07T14:28:35;5.43;;;3.83;;
8550;SDS011;4313;42.000;21.380;2023-05-07T14:31:04;4.10;;;3.58;;
8550;SDS011;4313;42.000;21.380;2023-05-07T14:33:32;3.90;;;3.50;;
8550;SDS011;4313;42.000;21.380;2023-05-07T14:35:59;6.40;;;4.50;;
8550;SDS011;4313;42.000;21.380;2023-05-07T14:38:26;5.68;;;4.75;;
8550;SDS011;4313;42.000;21.380;2023-05-07T14:40:54;6.63;;;4.57;;
8550;SDS011;4313;42.000;21.380;2023-05-07T14:43:21;4.35;;;3.83;;
8550;SDS011;4313;42.000;21.380;2023-05-07T14:45:50;4.97;;;4.45;;
8550;SDS011;4313;42.000;21.380;2023-05-07T14:48:18;4.55;;;3.75;;
8550;SDS011;4313;42.000;21.380;2023-05-07T14:50:46;9.20;;;3.63;;
8550;SDS011;4313;42.000;21.380;2023-05-07T14:53:13;6.25;;;4.63;;
8550;SDS011;4313;42.000;21.380;2023-05-07T14:55:40;4.70;;;4.25;;
8550;SDS011;4313;42.000;21.380;2023-05-07T14:58:08;3.88;;;3.45;;
8550;SDS011;4313;42.000;21.380;2023-05-07T15:00:35;4.28;;;3.88;;
8550;SDS011;4313;42.000;21.380;2023-05-07T15:03:04;5.82;;;3.78;;
8550;SDS011;4313;42.000;21.380;2023-05-07T15:05:34;4.90;;;3.33;;
8550;SDS011;4313;42.000;21.380;2023-05-07T15:08:01;4.80;;;3.75;;
8550;SDS011;4313;42.000;21.380;2023-05-07T15:10:28;4.22;;;3.65;;
8550;SDS011;4313;42.000;21.380;2023-05-07T15:12:55;4.68;;;3.78;;
8550;SDS011;4313;42.000;21.380;2023-05-07T15:15:22;3.90;;;3.47;;
8550;SDS011;4313;42.000;21.380;2023-05-07T15:17:51;5.35;;;3.40;;
8550;SDS011;4313;42.000;21.380;2023-05-07T15:20:20;5.25;;;3.60;;
8550;SDS011;4313;42.000;21.380;2023-05-07T15:22:47;4.10;;;3.50;;